createdAt,value
2022-09-04T00:00:02.579Z,66.40
2022-09-04T00:01:26.512Z,66.30
2022-09-04T00:02:47.338Z,66.40
2022-09-04T00:03:58.984Z,66.40
2022-09-04T00:05:12.475Z,66.40
2022-09-04T00:06:27.588Z,66.60
2022-09-04T00:07:39.956Z,66.40
2022-09-04T00:09:05.775Z,66.40
2022-09-04T00:10:17.331Z,66.30
2022-09-04T00:11:41.620Z,66.40
2022-09-04T00:12:51.979Z,66.30
2022-09-04T00:14:02.319Z,66.30
2022-09-04T00:15:13.688Z,66.30
2022-09-04T00:16:23.029Z,66.30
2022-09-04T00:17:36.055Z,66.40
2022-09-04T00:18:46.832Z,66.50
2022-09-04T00:19:59.616Z,66.80
2022-09-04T00:21:14.881Z,67.00
2022-09-04T00:22:33.845Z,67.00
2022-09-04T00:23:46.335Z,67.20
2022-09-04T00:24:57.601Z,67.20
2022-09-04T00:26:11.620Z,67.40
2022-09-04T00:27:23.619Z,67.50
2022-09-04T00:28:39.637Z,67.70
2022-09-04T00:29:52.763Z,67.70
2022-09-04T00:31:04.456Z,67.80
2022-09-04T00:32:18.863Z,68.10
2022-09-04T00:33:33.670Z,68.30
2022-09-04T00:34:56.383Z,68.40
2022-09-04T00:36:04.343Z,68.40
2022-09-04T00:37:13.273Z,68.40
2022-09-04T00:38:36.699Z,68.40
2022-09-04T00:39:44.935Z,68.60
2022-09-04T00:41:02.924Z,68.60
2022-09-04T00:42:25.277Z,68.80
2022-09-04T00:44:00.065Z,68.40
2022-09-04T00:45:30.658Z,68.30
2022-09-04T00:47:23.902Z,68.30
2022-09-04T00:49:07.562Z,68.00
2022-09-04T00:50:32.302Z,68.00
2022-09-04T00:51:45.123Z,68.30
2022-09-04T00:53:23.496Z,68.20
2022-09-04T00:55:03.418Z,68.10
2022-09-04T00:56:30.288Z,67.80
2022-09-04T00:58:05.646Z,67.70
2022-09-04T00:59:21.702Z,67.70
2022-09-04T01:00:28.013Z,67.70
2022-09-04T01:01:32.426Z,67.70
2022-09-04T01:03:22.666Z,67.60
2022-09-04T01:04:41.753Z,67.70
2022-09-04T01:06:16.498Z,67.80
2022-09-04T01:07:40.084Z,68.00
2022-09-04T01:09:23.156Z,68.20
2022-09-04T01:10:50.000Z,68.40
2022-09-04T01:12:10.992Z,68.40
2022-09-04T01:13:26.627Z,68.30
2022-09-04T01:14:41.470Z,68.50
2022-09-04T01:15:52.183Z,68.60
2022-09-04T01:17:03.658Z,68.70
2022-09-04T01:18:13.909Z,68.70
2022-09-04T01:19:36.776Z,68.80
2022-09-04T01:21:06.678Z,68.80
2022-09-04T01:22:36.066Z,68.90
2022-09-04T01:24:09.455Z,68.90
2022-09-04T01:25:35.861Z,69.00
2022-09-04T01:26:48.016Z,69.00
2022-09-04T01:28:01.458Z,69.10
2022-09-04T01:29:21.348Z,69.20
2022-09-04T01:30:25.001Z,69.10
2022-09-04T01:31:39.027Z,69.20
2022-09-04T01:33:02.988Z,69.30
2022-09-04T01:34:27.279Z,69.40
2022-09-04T01:35:40.634Z,69.40
2022-09-04T01:36:50.089Z,69.30
2022-09-04T01:38:05.620Z,69.20
2022-09-04T01:39:08.251Z,69.30
2022-09-04T01:40:35.707Z,69.30
2022-09-04T01:41:49.880Z,69.40
2022-09-04T01:42:59.165Z,69.40
2022-09-04T01:44:04.711Z,69.50
2022-09-04T01:45:08.406Z,69.70
2022-09-04T01:46:42.762Z,69.60
2022-09-04T01:47:51.328Z,69.70
2022-09-04T01:49:04.665Z,69.70
2022-09-04T01:50:12.240Z,69.60
2022-09-04T01:51:26.564Z,69.80
2022-09-04T01:52:41.762Z,69.90
2022-09-04T01:53:54.756Z,69.90
2022-09-04T01:55:07.516Z,70.00
2022-09-04T01:56:17.603Z,70.00
2022-09-04T01:57:39.998Z,69.90
2022-09-04T01:58:49.085Z,69.80
2022-09-04T02:00:01.988Z,69.90
2022-09-04T02:01:22.879Z,70.10
2022-09-04T02:02:41.344Z,70.10
2022-09-04T02:03:54.217Z,70.10
2022-09-04T02:05:09.087Z,70.20
2022-09-04T02:06:27.907Z,70.40
2022-09-04T02:07:39.690Z,70.40
2022-09-04T02:09:15.529Z,70.30
2022-09-04T02:10:30.303Z,70.40
2022-09-04T02:11:34.000Z,70.50
2022-09-04T02:12:51.063Z,70.60
2022-09-04T02:14:14.415Z,70.60
2022-09-04T02:15:30.820Z,70.60
2022-09-04T02:16:46.859Z,70.70
2022-09-04T02:17:58.536Z,70.70
2022-09-04T02:19:30.377Z,70.70
2022-09-04T02:20:32.974Z,70.80
2022-09-04T02:21:41.769Z,70.90
2022-09-04T02:22:59.502Z,70.90
2022-09-04T02:24:12.582Z,71.00
2022-09-04T02:25:27.190Z,71.00
2022-09-04T02:26:37.575Z,71.10
2022-09-04T02:27:52.660Z,71.20
2022-09-04T02:29:04.683Z,71.30
2022-09-04T02:30:10.495Z,71.30
2022-09-04T02:31:29.377Z,71.40
2022-09-04T02:32:37.839Z,71.40
2022-09-04T02:33:50.215Z,71.40
2022-09-04T02:35:03.557Z,71.40
2022-09-04T02:36:18.759Z,71.40
2022-09-04T02:37:34.019Z,71.40
2022-09-04T02:38:48.088Z,71.50
2022-09-04T02:40:03.907Z,71.90
2022-09-04T02:41:17.105Z,71.70
2022-09-04T02:42:28.249Z,71.80
2022-09-04T02:43:52.157Z,71.80
2022-09-04T02:45:13.965Z,72.00
2022-09-04T02:46:28.425Z,72.00
2022-09-04T02:47:43.898Z,71.90
2022-09-04T02:49:03.575Z,72.20
2022-09-04T02:50:21.128Z,72.20
2022-09-04T02:51:47.415Z,72.10
2022-09-04T02:53:05.802Z,72.00
2022-09-04T02:54:19.548Z,72.10
2022-09-04T02:55:47.262Z,72.10
2022-09-04T02:57:00.175Z,72.10
2022-09-04T02:58:22.233Z,71.90
2022-09-04T02:59:38.208Z,72.40
2022-09-04T03:00:54.367Z,72.40
2022-09-04T03:02:00.585Z,72.50
2022-09-04T03:03:13.668Z,72.40
2022-09-04T03:04:22.718Z,72.80
2022-09-04T03:05:27.312Z,72.80
2022-09-04T03:06:51.350Z,73.40
2022-09-04T03:08:03.197Z,74.10
2022-09-04T03:09:10.573Z,74.30
2022-09-04T03:10:19.483Z,74.10
2022-09-04T03:11:31.398Z,74.00
2022-09-04T03:12:44.650Z,74.20
2022-09-04T03:13:56.752Z,73.90
2022-09-04T03:15:10.581Z,73.90
2022-09-04T03:16:21.536Z,73.90
2022-09-04T03:17:34.295Z,73.90
2022-09-04T03:18:59.212Z,74.60
2022-09-04T03:20:13.055Z,74.80
2022-09-04T03:21:24.271Z,75.40
2022-09-04T03:22:34.406Z,75.60
2022-09-04T03:23:46.879Z,75.60
2022-09-04T03:25:11.819Z,75.50
2022-09-04T03:26:22.079Z,75.20
2022-09-04T03:27:26.122Z,75.30
2022-09-04T03:28:41.024Z,75.10
2022-09-04T03:29:56.801Z,75.30
2022-09-04T03:31:23.037Z,75.10
2022-09-04T03:32:34.570Z,75.10
2022-09-04T03:33:46.276Z,75.20
2022-09-04T03:34:57.794Z,75.00
2022-09-04T03:36:12.412Z,75.30
2022-09-04T03:37:47.463Z,75.20
2022-09-04T03:39:02.669Z,75.10
2022-09-04T03:40:24.712Z,75.00
2022-09-04T03:41:36.866Z,75.40
2022-09-04T03:43:14.678Z,75.60
2022-09-04T03:44:32.673Z,75.60
2022-09-04T03:45:58.863Z,75.20
2022-09-04T03:47:31.514Z,75.40
2022-09-04T03:48:52.147Z,75.30
2022-09-04T03:50:11.701Z,75.20
2022-09-04T03:51:25.805Z,75.20
2022-09-04T03:52:38.199Z,75.00
2022-09-04T03:53:45.842Z,75.00
2022-09-04T03:55:11.493Z,75.00
2022-09-04T03:57:02.521Z,74.90
2022-09-04T03:58:21.419Z,75.70
2022-09-04T03:59:39.211Z,75.90
2022-09-04T04:00:57.341Z,75.70
2022-09-04T04:02:11.201Z,75.90
2022-09-04T04:03:42.625Z,75.90
2022-09-04T04:05:21.922Z,76.80
2022-09-04T04:06:35.926Z,76.60
2022-09-04T04:07:54.384Z,76.50
2022-09-04T04:09:33.344Z,76.50
2022-09-04T04:10:49.374Z,76.70
2022-09-04T04:12:13.213Z,76.40
2022-09-04T04:13:36.329Z,76.40
2022-09-04T04:15:01.840Z,77.00
2022-09-04T04:16:26.718Z,77.20
2022-09-04T04:17:55.416Z,77.00
2022-09-04T04:19:42.358Z,77.10
2022-09-04T04:20:57.409Z,76.70
2022-09-04T04:22:24.959Z,76.80
2022-09-04T04:24:02.433Z,76.90
2022-09-04T04:25:25.281Z,76.80
2022-09-04T04:26:50.594Z,76.80
2022-09-04T04:28:24.943Z,77.20
2022-09-04T04:29:47.031Z,76.90
2022-09-04T04:30:54.675Z,77.10
2022-09-04T04:32:24.394Z,77.30
2022-09-04T04:33:48.326Z,77.70
2022-09-04T04:35:08.957Z,77.50
2022-09-04T04:36:29.268Z,77.40
2022-09-04T04:37:57.533Z,77.20
2022-09-04T04:39:30.026Z,77.10
2022-09-04T04:41:06.590Z,77.40
2022-09-04T04:42:25.720Z,77.30
2022-09-04T04:43:34.749Z,77.30
2022-09-04T04:45:30.420Z,77.30
2022-09-04T04:46:51.775Z,77.20
2022-09-04T04:48:54.138Z,78.10
2022-09-04T04:50:13.553Z,78.90
2022-09-04T04:51:39.781Z,79.00
2022-09-04T04:52:55.054Z,78.80
2022-09-04T04:54:17.606Z,78.70
2022-09-04T04:55:38.799Z,78.50
2022-09-04T04:56:52.220Z,78.50
2022-09-04T04:58:23.991Z,78.50
2022-09-04T04:59:35.013Z,78.40
2022-09-04T05:00:47.325Z,78.30
2022-09-04T05:02:04.852Z,78.60
2022-09-04T05:03:19.831Z,78.60
2022-09-04T05:04:37.084Z,79.00
2022-09-04T05:06:01.689Z,79.00
2022-09-04T05:07:14.507Z,78.80
2022-09-04T05:08:32.255Z,78.70
2022-09-04T05:09:43.578Z,79.00
2022-09-04T05:10:51.187Z,79.10
2022-09-04T05:12:04.624Z,79.10
2022-09-04T05:13:19.144Z,79.10
2022-09-04T05:14:40.039Z,79.10
2022-09-04T05:16:08.304Z,79.20
2022-09-04T05:17:26.038Z,79.00
2022-09-04T05:18:34.772Z,79.40
2022-09-04T05:19:46.759Z,79.50
2022-09-04T05:21:00.322Z,79.30
2022-09-04T05:22:15.203Z,79.00
2022-09-04T05:23:29.864Z,79.20
2022-09-04T05:24:39.969Z,79.00
2022-09-04T05:25:53.308Z,79.00
2022-09-04T05:27:01.778Z,78.90
2022-09-04T05:28:19.758Z,78.80
2022-09-04T05:29:33.518Z,78.60
2022-09-04T05:30:47.833Z,78.40
2022-09-04T05:31:58.420Z,78.40
2022-09-04T05:33:15.072Z,78.20
2022-09-04T05:34:34.101Z,78.20
2022-09-04T05:35:45.823Z,78.10
2022-09-04T05:37:04.166Z,77.90
2022-09-04T05:38:16.487Z,77.80
2022-09-04T05:39:30.349Z,77.70
2022-09-04T05:40:55.175Z,77.60
2022-09-04T05:42:15.284Z,77.30
2022-09-04T05:43:34.422Z,77.30
2022-09-04T05:44:57.760Z,77.20
2022-09-04T05:46:11.806Z,77.10
2022-09-04T05:47:31.337Z,77.10
2022-09-04T05:48:44.662Z,77.10
2022-09-04T05:50:21.456Z,77.20
2022-09-04T05:52:15.582Z,77.10
2022-09-04T05:53:50.814Z,76.90
2022-09-04T05:55:24.779Z,77.00
2022-09-04T05:57:02.045Z,77.00
2022-09-04T05:58:26.028Z,76.70
2022-09-04T06:00:06.315Z,76.70
2022-09-04T06:01:41.204Z,77.10
2022-09-04T06:03:26.546Z,77.20
2022-09-04T06:05:04.395Z,77.40
2022-09-04T06:06:22.625Z,77.40
2022-09-04T06:07:32.343Z,77.30
2022-09-04T06:09:28.367Z,77.50
2022-09-04T06:10:46.879Z,77.20
2022-09-04T06:12:19.300Z,77.20
2022-09-04T06:13:55.180Z,76.60
2022-09-04T06:15:28.187Z,76.50
2022-09-04T06:16:51.737Z,76.20
2022-09-04T06:18:28.193Z,75.80
2022-09-04T06:19:58.464Z,75.70
2022-09-04T06:21:24.012Z,75.70
2022-09-04T06:23:07.268Z,75.90
2022-09-04T06:24:29.786Z,75.80
2022-09-04T06:26:21.448Z,75.80
2022-09-04T06:27:48.712Z,76.10
2022-09-04T06:29:26.146Z,75.90
2022-09-04T06:30:36.919Z,76.00
2022-09-04T06:32:07.073Z,75.90
2022-09-04T06:33:37.704Z,75.90
2022-09-04T06:35:02.524Z,75.60
2022-09-04T06:36:36.693Z,75.10
2022-09-04T06:37:51.227Z,74.20
2022-09-04T06:39:18.369Z,73.50
2022-09-04T06:40:49.865Z,72.70
2022-09-04T06:42:10.677Z,71.80
2022-09-04T06:43:29.534Z,71.30
2022-09-04T06:44:53.975Z,70.70
2022-09-04T06:46:16.299Z,70.00
2022-09-04T06:47:32.183Z,69.30
2022-09-04T06:48:50.908Z,68.40
2022-09-04T06:50:22.033Z,68.00
2022-09-04T06:51:53.588Z,67.30
2022-09-04T06:53:16.365Z,66.70
2022-09-04T06:54:39.282Z,66.20
2022-09-04T06:55:56.927Z,65.60
2022-09-04T06:57:20.753Z,65.10
2022-09-04T06:59:01.520Z,64.60
2022-09-04T07:00:08.516Z,64.10
2022-09-04T07:01:17.267Z,63.30
2022-09-04T07:02:37.604Z,62.90
2022-09-04T07:03:58.568Z,62.50
2022-09-04T07:05:18.153Z,62.00
2022-09-04T07:06:31.058Z,61.60
2022-09-04T07:07:43.605Z,61.20
2022-09-04T07:09:00.320Z,60.60
2022-09-04T07:10:10.667Z,60.50
2022-09-04T07:11:29.075Z,60.20
2022-09-04T07:13:19.348Z,59.70
2022-09-04T07:15:01.226Z,59.10
2022-09-04T07:16:21.426Z,58.80
2022-09-04T07:17:31.592Z,58.40
2022-09-04T07:19:13.454Z,58.10
2022-09-04T07:20:22.195Z,57.80
2022-09-04T07:21:35.699Z,57.50
2022-09-04T07:23:22.057Z,57.20
2022-09-04T07:24:57.049Z,57.00
2022-09-04T07:26:18.004Z,56.50
2022-09-04T07:27:37.996Z,56.20
2022-09-04T07:29:01.168Z,55.50
2022-09-04T07:30:07.580Z,55.00
2022-09-04T07:31:17.205Z,54.60
2022-09-04T07:32:30.975Z,54.50
2022-09-04T07:33:59.209Z,54.00
2022-09-04T07:35:08.923Z,53.30
2022-09-04T07:36:20.097Z,53.00
2022-09-04T07:37:39.718Z,52.50
2022-09-04T07:38:52.268Z,52.10
2022-09-04T07:40:10.134Z,51.70
2022-09-04T07:41:21.826Z,51.40
2022-09-04T07:42:36.673Z,50.70
2022-09-04T07:43:54.654Z,50.80
2022-09-04T07:45:06.191Z,50.20
2022-09-04T07:46:23.354Z,50.40
2022-09-04T07:47:36.568Z,50.10
2022-09-04T07:48:47.896Z,50.10
2022-09-04T07:50:08.301Z,49.80
2022-09-04T07:51:17.790Z,49.60
2022-09-04T07:52:39.614Z,49.60
2022-09-04T07:54:22.310Z,49.40
2022-09-04T07:55:40.618Z,49.20
2022-09-04T07:57:13.883Z,48.60
2022-09-04T07:59:22.229Z,48.20
2022-09-04T08:00:25.590Z,48.10
2022-09-04T08:01:49.267Z,47.60
2022-09-04T08:03:12.144Z,47.30
2022-09-04T08:06:52.462Z,47.20
2022-09-04T08:08:36.499Z,46.80
2022-09-04T08:10:13.533Z,46.10
2022-09-04T08:12:10.677Z,45.90
2022-09-04T08:13:55.907Z,45.50
2022-09-04T08:15:12.978Z,45.30
2022-09-04T08:16:25.869Z,45.30
2022-09-04T08:18:16.373Z,45.50
2022-09-04T08:19:43.010Z,45.70
2022-09-04T08:20:50.703Z,45.10
2022-09-04T08:21:57.162Z,44.60
2022-09-04T08:23:30.033Z,44.80
2022-09-04T08:25:17.010Z,44.40
2022-09-04T08:26:30.358Z,44.40
2022-09-04T08:28:02.731Z,44.70
2022-09-04T08:29:26.381Z,44.00
2022-09-04T08:30:42.709Z,43.50
2022-09-04T08:32:04.299Z,43.30
2022-09-04T08:33:36.772Z,43.20
2022-09-04T08:35:01.188Z,42.70
2022-09-04T08:36:12.416Z,42.60
2022-09-04T08:37:26.080Z,42.60
2022-09-04T08:38:50.353Z,42.40
2022-09-04T08:40:18.542Z,42.60
2022-09-04T08:42:18.956Z,42.80
2022-09-04T08:43:39.969Z,42.80
2022-09-04T08:45:43.398Z,42.80
2022-09-04T08:47:53.580Z,42.80
2022-09-04T08:50:06.774Z,42.70
2022-09-04T08:52:06.997Z,42.00
2022-09-04T08:53:52.621Z,41.80
2022-09-04T08:55:41.203Z,41.20
2022-09-04T08:56:59.879Z,40.70
2022-09-04T08:59:03.659Z,40.90
2022-09-04T09:00:14.174Z,40.20
2022-09-04T09:02:04.377Z,39.80
2022-09-04T09:03:57.531Z,39.50
2022-09-04T09:05:26.025Z,39.80
2022-09-04T09:07:06.902Z,40.20
2022-09-04T09:08:45.582Z,39.70
2022-09-04T09:10:29.125Z,39.30
2022-09-04T09:12:09.800Z,39.60
2022-09-04T09:14:24.322Z,39.40
2022-09-04T09:16:23.295Z,39.80
2022-09-04T09:17:39.690Z,39.40
2022-09-04T09:19:10.624Z,39.00
2022-09-04T09:20:30.699Z,39.20
2022-09-04T09:21:46.078Z,38.80
2022-09-04T09:23:20.993Z,38.70
2022-09-04T09:26:31.099Z,38.20
2022-09-04T09:30:03.529Z,37.60
2022-09-04T09:32:07.536Z,37.00
2022-09-04T09:33:53.055Z,36.50
2022-09-04T09:36:04.773Z,37.10
2022-09-04T09:37:45.859Z,36.70
2022-09-04T09:39:39.945Z,36.70
2022-09-04T09:41:42.113Z,36.00
2022-09-04T09:43:42.047Z,36.00
2022-09-04T09:45:28.068Z,36.30
2022-09-04T09:47:22.260Z,36.80
2022-09-04T09:49:15.250Z,37.00
2022-09-04T09:51:06.253Z,37.10
2022-09-04T09:53:01.911Z,36.40
2022-09-04T09:54:53.714Z,36.80
2022-09-04T09:57:01.854Z,37.10
2022-09-04T09:58:58.440Z,37.30
2022-09-04T10:00:17.293Z,37.20
2022-09-04T10:01:57.678Z,37.50
2022-09-04T10:03:45.267Z,37.40
2022-09-04T10:05:46.809Z,37.90
2022-09-04T10:08:06.773Z,38.10
2022-09-04T10:10:10.939Z,37.90
2022-09-04T10:11:54.434Z,37.60
2022-09-04T10:13:33.370Z,38.20
2022-09-04T10:15:16.657Z,37.70
2022-09-04T10:17:19.141Z,37.90
2022-09-04T10:19:06.067Z,37.80
2022-09-04T10:21:08.529Z,37.80
2022-09-04T10:22:50.040Z,37.30
2022-09-04T10:24:46.918Z,37.60
2022-09-04T10:26:29.208Z,37.40
2022-09-04T10:28:03.166Z,37.70
2022-09-04T10:29:42.838Z,37.70
2022-09-04T10:31:11.711Z,37.60
2022-09-04T10:33:07.970Z,37.90
2022-09-04T10:34:48.258Z,37.40
2022-09-04T10:36:25.752Z,37.80
2022-09-04T10:37:53.496Z,37.60
2022-09-04T10:39:27.217Z,37.50
2022-09-04T10:40:51.531Z,37.60
2022-09-04T10:42:16.557Z,37.40
2022-09-04T10:43:46.399Z,37.50
2022-09-04T10:45:15.834Z,37.60
2022-09-04T10:46:27.591Z,37.50
2022-09-04T10:47:59.374Z,37.00
2022-09-04T10:49:33.841Z,37.70
2022-09-04T10:51:36.235Z,37.20
2022-09-04T10:53:12.119Z,37.50
2022-09-04T10:55:05.482Z,37.60
2022-09-04T10:56:29.991Z,37.10
2022-09-04T10:57:55.225Z,37.30
2022-09-04T10:59:28.301Z,37.30
2022-09-04T11:00:50.152Z,36.40
2022-09-04T11:02:18.142Z,36.90
2022-09-04T11:03:43.441Z,37.60
2022-09-04T11:05:38.012Z,37.40
2022-09-04T11:07:28.599Z,37.90
2022-09-04T11:09:29.241Z,38.10
2022-09-04T11:11:12.178Z,38.00
2022-09-04T11:12:46.955Z,37.60
2022-09-04T11:14:20.651Z,37.60
2022-09-04T11:16:04.951Z,37.10
2022-09-04T11:17:44.870Z,37.70
2022-09-04T11:19:30.578Z,37.50
2022-09-04T11:21:21.685Z,37.60
2022-09-04T11:22:58.054Z,38.00
2022-09-04T11:25:04.400Z,37.20
2022-09-04T11:27:05.928Z,37.70
2022-09-04T11:28:46.720Z,38.20
2022-09-04T11:30:13.274Z,38.50
2022-09-04T11:31:48.592Z,39.30
2022-09-04T11:33:49.596Z,39.60
2022-09-04T11:35:50.053Z,39.70
2022-09-04T11:37:34.663Z,39.60
2022-09-04T11:39:22.033Z,40.20
2022-09-04T11:41:28.361Z,40.40
2022-09-04T11:42:44.783Z,40.40
2022-09-04T11:44:46.331Z,40.70
2022-09-04T11:47:06.744Z,40.90
2022-09-04T11:49:18.393Z,41.10
2022-09-04T11:50:52.857Z,41.80
2022-09-04T11:52:18.190Z,42.10
2022-09-04T11:53:44.652Z,42.20
2022-09-04T11:55:25.120Z,42.20
2022-09-04T11:56:48.541Z,42.80
2022-09-04T11:58:36.627Z,42.30
2022-09-04T12:00:11.761Z,42.10
2022-09-04T12:01:49.404Z,42.10
2022-09-04T12:03:53.130Z,41.70
2022-09-04T12:05:13.762Z,41.30
2022-09-04T12:06:44.040Z,41.30
2022-09-04T12:08:15.055Z,40.80
2022-09-04T12:09:52.674Z,40.80
2022-09-04T12:11:19.291Z,40.60
2022-09-04T12:13:12.517Z,40.60
2022-09-04T12:14:51.385Z,40.40
2022-09-04T12:16:42.783Z,40.60
2022-09-04T12:18:37.043Z,40.60
2022-09-04T12:20:41.216Z,41.00
2022-09-04T12:22:31.298Z,41.00
2022-09-04T12:24:08.296Z,41.40
2022-09-04T12:25:58.062Z,41.10
2022-09-04T12:27:55.327Z,41.60
2022-09-04T12:29:41.225Z,41.40
2022-09-04T12:31:03.362Z,41.30
2022-09-04T12:32:50.652Z,41.30
2022-09-04T12:34:35.727Z,41.40
2022-09-04T12:36:14.543Z,41.60
2022-09-04T12:38:08.337Z,42.10
2022-09-04T12:39:46.920Z,42.40
2022-09-04T12:41:01.627Z,43.00
2022-09-04T12:42:15.709Z,43.20
2022-09-04T12:43:38.758Z,43.50
2022-09-04T12:44:58.084Z,43.70
2022-09-04T12:46:16.834Z,43.50
2022-09-04T12:47:37.246Z,43.70
2022-09-04T12:48:55.125Z,43.90
2022-09-04T12:50:28.639Z,44.10
2022-09-04T12:51:46.020Z,44.20
2022-09-04T12:53:39.904Z,44.50
2022-09-04T12:54:52.817Z,44.60
2022-09-04T12:56:05.885Z,44.90
2022-09-04T12:57:28.217Z,44.90
2022-09-04T12:58:53.838Z,45.10
2022-09-04T13:00:10.665Z,45.40
2022-09-04T13:01:32.351Z,45.50
2022-09-04T13:02:58.563Z,45.70
2022-09-04T13:04:13.587Z,45.90
2022-09-04T13:05:55.125Z,45.80
2022-09-04T13:07:21.138Z,46.00
2022-09-04T13:08:36.079Z,46.30
2022-09-04T13:09:53.686Z,46.60
2022-09-04T13:11:09.577Z,47.00
2022-09-04T13:12:25.812Z,47.10
2022-09-04T13:13:43.534Z,47.40
2022-09-04T13:15:28.417Z,47.60
2022-09-04T13:16:39.153Z,47.50
2022-09-04T13:17:58.351Z,47.20
2022-09-04T13:19:15.668Z,47.40
2022-09-04T13:20:28.665Z,47.40
2022-09-04T13:21:56.221Z,47.20
2022-09-04T13:23:21.213Z,47.10
2022-09-04T13:24:51.331Z,47.10
2022-09-04T13:26:15.533Z,47.10
2022-09-04T13:27:41.203Z,47.10
2022-09-04T13:28:58.399Z,46.80
2022-09-04T13:30:09.491Z,46.90
2022-09-04T13:31:44.917Z,47.00
2022-09-04T13:33:25.215Z,47.00
2022-09-04T13:34:41.452Z,47.20
2022-09-04T13:36:04.466Z,47.10
2022-09-04T13:37:23.906Z,47.30
2022-09-04T13:38:52.770Z,47.60
2022-09-04T13:40:22.745Z,47.70
2022-09-04T13:41:58.365Z,47.70
2022-09-04T13:43:37.795Z,47.60
2022-09-04T13:45:02.835Z,47.00
2022-09-04T13:46:12.751Z,47.20
2022-09-04T13:47:22.940Z,47.30
2022-09-04T13:48:43.977Z,47.20
2022-09-04T13:49:53.455Z,47.50
2022-09-04T13:51:04.224Z,47.30
2022-09-04T13:52:24.488Z,47.50
2022-09-04T13:53:37.029Z,47.50
2022-09-04T13:54:46.679Z,47.80
2022-09-04T13:55:57.374Z,47.90
2022-09-04T13:57:11.483Z,47.40
2022-09-04T13:58:20.874Z,47.40
2022-09-04T13:59:26.544Z,47.30
2022-09-04T14:00:35.171Z,47.20
2022-09-04T14:01:46.076Z,47.00
2022-09-04T14:02:58.183Z,47.20
2022-09-04T14:04:08.417Z,47.20
2022-09-04T14:05:17.873Z,47.10
2022-09-04T14:06:24.224Z,47.40
2022-09-04T14:07:31.674Z,47.60
2022-09-04T14:08:36.244Z,47.30
2022-09-04T14:09:47.680Z,47.30
2022-09-04T14:11:21.851Z,47.10
2022-09-04T14:13:05.406Z,47.00
2022-09-04T14:15:08.089Z,46.80
2022-09-04T14:16:16.585Z,46.70
2022-09-04T14:17:28.422Z,46.20
2022-09-04T14:19:16.572Z,46.20
2022-09-04T14:20:23.878Z,45.50
2022-09-04T14:21:44.940Z,45.30
2022-09-04T14:23:02.957Z,45.00
2022-09-04T14:24:15.917Z,44.80
2022-09-04T14:27:01.823Z,44.70
2022-09-04T14:28:16.915Z,44.70
2022-09-04T14:29:31.353Z,44.70
2022-09-04T14:30:29.476Z,44.50
2022-09-04T14:30:41.926Z,45.00
2022-09-04T14:31:58.583Z,44.70
2022-09-04T14:33:21.983Z,44.70
2022-09-04T14:34:42.873Z,44.60
2022-09-04T14:35:59.793Z,44.50
2022-09-04T14:37:18.768Z,44.60
2022-09-04T14:38:49.667Z,44.80
2022-09-04T14:40:04.502Z,44.90
2022-09-04T14:41:36.086Z,44.90
2022-09-04T14:42:49.230Z,45.10
2022-09-04T14:44:08.463Z,44.60
2022-09-04T14:45:50.424Z,44.90
2022-09-04T14:47:09.761Z,44.80
2022-09-04T14:48:15.814Z,44.70
2022-09-04T14:49:23.954Z,44.70
2022-09-04T14:50:31.055Z,44.80
2022-09-04T14:51:38.434Z,44.80
2022-09-04T14:52:49.260Z,44.70
2022-09-04T14:53:56.392Z,44.70
2022-09-04T14:54:59.717Z,44.80
2022-09-04T14:56:29.120Z,45.10
2022-09-04T14:57:39.930Z,45.30
2022-09-04T14:58:50.060Z,45.30
2022-09-04T15:00:11.334Z,45.10
2022-09-04T15:01:20.249Z,45.30
2022-09-04T15:02:33.969Z,45.40
2022-09-04T15:03:48.028Z,45.50
2022-09-04T15:04:58.790Z,45.40
2022-09-04T15:06:16.394Z,45.60
2022-09-04T15:07:52.349Z,45.70
2022-09-04T15:08:56.932Z,45.80
2022-09-04T15:10:15.148Z,45.80
2022-09-04T15:11:31.974Z,46.00
2022-09-04T15:12:40.468Z,46.00
2022-09-04T15:13:55.921Z,45.80
2022-09-04T15:15:09.284Z,45.50
2022-09-04T15:16:24.731Z,44.90
2022-09-04T15:17:30.773Z,45.00
2022-09-04T15:18:46.594Z,45.10
2022-09-04T15:19:56.245Z,45.20
2022-09-04T15:21:08.273Z,45.00
2022-09-04T15:22:19.570Z,45.00
2022-09-04T15:23:32.744Z,44.90
2022-09-04T15:24:41.170Z,44.80
2022-09-04T15:25:59.327Z,44.80
2022-09-04T15:27:16.365Z,44.70
2022-09-04T15:28:27.255Z,44.80
2022-09-04T15:29:40.826Z,44.70
2022-09-04T15:30:47.078Z,44.80
2022-09-04T15:32:01.559Z,44.70
2022-09-04T15:33:08.309Z,44.80
2022-09-04T15:34:21.741Z,44.80
2022-09-04T15:35:33.260Z,44.70
2022-09-04T15:36:39.210Z,44.60
2022-09-04T15:37:48.303Z,45.00
2022-09-04T15:38:57.407Z,44.90
2022-09-04T15:40:04.445Z,45.00
2022-09-04T15:41:20.286Z,45.20
2022-09-04T15:42:42.190Z,45.40
2022-09-04T15:43:51.563Z,45.50
2022-09-04T15:44:54.826Z,45.60
2022-09-04T15:46:04.399Z,45.60
2022-09-04T15:47:17.092Z,45.50
2022-09-04T15:48:33.094Z,45.50
2022-09-04T15:49:49.735Z,45.40
2022-09-04T15:51:11.354Z,45.50
2022-09-04T15:52:38.076Z,45.60
2022-09-04T15:53:46.942Z,45.80
2022-09-04T15:55:22.177Z,45.80
2022-09-04T15:56:37.003Z,46.20
2022-09-04T15:57:56.122Z,46.30
2022-09-04T15:59:09.689Z,46.30
2022-09-04T16:00:15.143Z,46.20
2022-09-04T16:01:26.913Z,46.30
2022-09-04T16:02:38.690Z,46.40
2022-09-04T16:04:00.143Z,46.50
2022-09-04T16:05:20.580Z,46.40
2022-09-04T16:06:32.344Z,46.70
2022-09-04T16:07:50.141Z,46.60
2022-09-04T16:09:04.261Z,46.70
2022-09-04T16:10:24.736Z,46.80
2022-09-04T16:11:34.987Z,46.90
2022-09-04T16:12:49.915Z,47.00
2022-09-04T16:13:59.226Z,47.00
2022-09-04T16:15:10.913Z,47.10
2022-09-04T16:16:22.984Z,47.10
2022-09-04T16:17:29.710Z,47.00
2022-09-04T16:18:51.839Z,47.00
2022-09-04T16:20:02.840Z,47.10
2022-09-04T16:21:15.658Z,47.20
2022-09-04T16:22:32.141Z,47.10
2022-09-04T16:23:38.896Z,47.10
2022-09-04T16:24:46.685Z,47.10
2022-09-04T16:25:50.870Z,47.20
2022-09-04T16:26:56.036Z,47.10
2022-09-04T16:28:08.320Z,47.20
2022-09-04T16:29:29.114Z,47.00
2022-09-04T16:30:42.838Z,47.10
2022-09-04T16:31:52.945Z,47.20
2022-09-04T16:32:57.142Z,47.20
2022-09-04T16:34:16.101Z,47.40
2022-09-04T16:35:22.698Z,47.40
2022-09-04T16:36:30.605Z,47.50
2022-09-04T16:37:40.303Z,47.50
2022-09-04T16:38:52.346Z,47.50
2022-09-04T16:40:22.491Z,47.40
2022-09-04T16:41:37.763Z,47.40
2022-09-04T16:42:48.099Z,47.30
2022-09-04T16:44:25.794Z,47.10
2022-09-04T16:45:37.535Z,47.10
2022-09-04T16:46:51.452Z,47.40
2022-09-04T16:48:12.703Z,47.40
2022-09-04T16:49:36.606Z,47.50
2022-09-04T16:50:51.838Z,47.10
2022-09-04T16:52:02.817Z,47.10
2022-09-04T16:53:17.562Z,47.20
2022-09-04T16:54:35.219Z,47.10
2022-09-04T16:55:44.738Z,47.10
2022-09-04T16:56:53.461Z,46.90
2022-09-04T16:58:46.977Z,46.80
2022-09-04T16:59:54.621Z,46.50
2022-09-04T17:01:15.582Z,46.10
2022-09-04T17:02:29.500Z,45.80
2022-09-04T17:03:52.315Z,45.60
2022-09-04T17:05:28.778Z,44.90
2022-09-04T17:06:41.910Z,44.50
2022-09-04T17:07:56.334Z,44.40
2022-09-04T17:09:21.347Z,44.00
2022-09-04T17:10:44.604Z,44.20
2022-09-04T17:11:55.451Z,44.40
2022-09-04T17:13:06.549Z,44.50
2022-09-04T17:14:22.978Z,44.50
2022-09-04T17:15:38.135Z,44.60
2022-09-04T17:16:57.259Z,44.80
2022-09-04T17:18:06.467Z,44.90
2022-09-04T17:19:14.456Z,45.20
2022-09-04T17:20:45.355Z,45.20
2022-09-04T17:29:01.003Z,45.00
2022-09-04T17:29:04.367Z,45.10
2022-09-04T17:29:13.392Z,45.00
2022-09-04T17:29:15.034Z,45.30
2022-09-04T17:29:29.806Z,45.40
2022-09-04T17:30:34.296Z,45.50
2022-09-04T17:31:49.840Z,45.40
2022-09-04T17:40:31.941Z,45.60
2022-09-04T17:40:33.673Z,45.50
2022-09-04T17:40:47.773Z,46.00
2022-09-04T17:40:52.075Z,46.60
2022-09-04T17:40:54.608Z,46.90
2022-09-04T17:41:34.749Z,47.10
2022-09-04T17:43:15.850Z,47.40
2022-09-04T17:44:30.351Z,47.70
2022-09-04T17:45:45.961Z,48.10
2022-09-04T17:46:57.804Z,48.40
2022-09-04T17:48:20.238Z,48.60
2022-09-04T17:49:34.686Z,48.80
2022-09-04T17:50:51.586Z,48.90
2022-09-04T17:51:58.677Z,49.00
2022-09-04T17:53:03.626Z,49.20
2022-09-04T17:54:14.927Z,49.10
2022-09-04T17:55:19.523Z,49.20
2022-09-04T17:56:31.695Z,49.40
2022-09-04T17:57:53.287Z,49.40
2022-09-04T17:59:03.083Z,49.50
2022-09-04T18:00:10.197Z,49.60
2022-09-04T18:01:23.353Z,49.70
2022-09-04T18:02:38.352Z,49.80
2022-09-04T18:04:19.955Z,49.80